Time;durP1;ratioP1;P1;durP2;ratioP2;P2;SDS_P1;SDS_P2;PMS_P1;PMS_P2;Temp;Humidity;BMP_temperature;BMP_pressure;BME280_temperature;BME280_humidity;BME280_pressure;Samples;Min_cycle;Max_cycle;Signal;HPM_P1;HPM_P2
2022/01/10 00:02:06;;;;;;;17.88;6.07;;;;;;;;;;4964056;28;20076;-79
2022/01/10 00:04:50;;;;;;;13.85;5.25;;;;;;;;;;4966100;28;20050;-79
2022/01/10 00:07:34;;;;;;;16.88;5.38;;;;;;;;;;4963964;28;20047;-79
2022/01/10 00:17:05;;;;;;;;;;;;;;;;;;;;;
2022/01/10 00:23:51;;;;;;;21.58;5.55;;;;;;;;;;4917738;28;20120;-79
2022/01/10 00:49:44;;;;;;;15.85;5.03;;;;;;;;;;4804520;29;20053;-79
2022/01/10 00:52:41;;;;;;;;;;;;;;;;;;;;;
2022/01/10 07:06:20;;;;;;;50.20;18.83;;;;;;;;;;5277234;23;20465;-79
2022/01/10 07:32:29;;;;;;;29.30;15.50;;;;;;;;;;4854823;29;20040;-79
2022/01/10 07:34:55;;;;;;;33.88;15.45;;;;;;;;;;4883519;29;20184;-78
2022/01/10 07:37:45;;;;;;;31.02;13.82;;;;;;;;;;4869189;29;20036;-79
2022/01/10 08:06:57;;;;;;;43.05;16.50;;;;;;;;;;4881227;29;20441;-79
2022/01/10 08:09:23;;;;;;;94.15;22.25;;;;;;;;;;4865229;29;20040;-79
2022/01/10 08:11:59;;;;;;;55.30;19.08;;;;;;;;;;4851022;29;20103;-79
2022/01/10 08:14:25;;;;;;;92.10;22.90;;;;;;;;;;4851131;29;20037;-79
2022/01/10 08:16:51;;;;;;;62.75;19.98;;;;;;;;;;4850746;29;20037;-78
2022/01/10 08:19:17;;;;;;;44.10;17.50;;;;;;;;;;4850552;29;20489;-79
2022/01/10 08:21:43;;;;;;;61.05;20.98;;;;;;;;;;4850535;29;20123;-78
2022/01/10 08:24:09;;;;;;;71.38;21.55;;;;;;;;;;4865567;29;20411;-79
2022/01/10 08:26:35;;;;;;;31.20;17.98;;;;;;;;;;4850517;29;20041;-78
2022/01/10 08:29:01;;;;;;;33.08;18.63;;;;;;;;;;4866042;29;20048;-79
2022/01/10 08:31:27;;;;;;;26.27;16.88;;;;;;;;;;4850028;29;20032;-80
2022/01/10 08:33:54;;;;;;;29.08;17.05;;;;;;;;;;4866293;29;20430;-79
2022/01/10 08:36:20;;;;;;;42.50;19.48;;;;;;;;;;4850544;29;20041;-80
2022/01/10 08:38:46;;;;;;;40.45;19.10;;;;;;;;;;4850294;29;20048;-79
2022/01/10 08:41:12;;;;;;;52.88;20.50;;;;;;;;;;4850076;29;20120;-79
2022/01/10 08:43:38;;;;;;;67.60;21.58;;;;;;;;;;4850736;29;20045;-79
2022/01/10 08:46:05;;;;;;;71.05;22.42;;;;;;;;;;4850227;29;20049;-78
2022/01/10 08:48:31;;;;;;;73.95;20.45;;;;;;;;;;4850301;29;20063;-78
2022/01/10 08:51:24;;;;;;;209.73;33.38;;;;;;;;;;4850323;29;20041;-78
2022/01/10 08:54:11;;;;;;;230.60;35.78;;;;;;;;;;4861142;29;20052;-79
2022/01/10 08:56:38;;;;;;;140.32;25.63;;;;;;;;;;4850178;29;20517;-77
2022/01/10 08:59:04;;;;;;;171.05;26.95;;;;;;;;;;4850487;29;20152;-78
2022/01/10 09:01:31;;;;;;;106.05;22.05;;;;;;;;;;4850195;29;20048;-79
2022/01/10 09:03:57;;;;;;;207.15;31.90;;;;;;;;;;4849880;29;20084;-79
2022/01/10 09:06:23;;;;;;;283.67;36.05;;;;;;;;;;4864536;29;20502;-79
2022/01/10 09:08:50;;;;;;;204.98;32.45;;;;;;;;;;4864540;29;20045;-78
2022/01/10 09:11:17;;;;;;;137.23;28.08;;;;;;;;;;4846016;29;20352;-78
2022/01/10 09:13:43;;;;;;;165.43;31.75;;;;;;;;;;4865734;29;20087;-77
2022/01/10 09:16:11;;;;;;;79.35;23.50;;;;;;;;;;4864275;29;20112;-79
2022/01/10 09:18:37;;;;;;;57.00;21.33;;;;;;;;;;4855575;29;20053;-78
2022/01/10 09:21:03;;;;;;;79.28;22.35;;;;;;;;;;4880461;29;20037;-77
2022/01/10 09:23:33;;;;;;;68.78;22.25;;;;;;;;;;4865230;29;20049;-79
2022/01/10 09:25:59;;;;;;;49.22;21.98;;;;;;;;;;4864896;29;20040;-79
2022/01/10 09:28:25;;;;;;;48.97;20.85;;;;;;;;;;4880636;29;20068;-78
2022/01/10 09:30:54;;;;;;;39.80;21.42;;;;;;;;;;4864716;29;20073;-78
2022/01/10 09:33:20;;;;;;;39.05;19.27;;;;;;;;;;4864502;29;20410;-78
2022/01/10 09:35:56;;;;;;;44.35;17.48;;;;;;;;;;4858423;29;20774;-78
2022/01/10 09:39:13;;;;;;;;;;;;;;;;;;;;;
2022/01/10 09:45:53;;;;;;;23.30;16.60;;;;;;;;;;4699484;30;20510;-78
2022/01/10 09:48:24;;;;;;;28.13;18.92;;;;;;;;;;4747849;30;20121;-78
2022/01/10 09:51:24;;;;;;;;;;;;;;;;;;;;;
2022/01/10 09:54:13;;;;;;;21.35;16.00;;;;;;;;;;4843923;29;20124;-79
2022/01/10 09:56:51;;;;;;;;;;;;;;;;;;;;;
2022/01/10 09:59:36;;;;;;;;;;;;;;;;;;;;;
2022/01/10 10:02:31;;;;;;;28.98;21.95;;;;;;;;;;4862553;29;20088;-79
2022/01/10 10:12:08;;;;;;;31.43;20.70;;;;;;;;;;4770668;29;20067;-77
2022/01/10 10:14:34;;;;;;;42.10;25.90;;;;;;;;;;4791066;29;20464;-76
2022/01/10 10:17:12;;;;;;;38.10;22.70;;;;;;;;;;4788019;29;20062;-81
2022/01/10 10:19:41;;;;;;;34.95;22.92;;;;;;;;;;4794917;29;20058;-78
2022/01/10 10:22:07;;;;;;;35.15;24.10;;;;;;;;;;4832708;29;20101;-77
2022/01/10 10:24:33;;;;;;;35.92;25.60;;;;;;;;;;4861578;29;20045;-80
2022/01/10 10:27:11;;;;;;;39.92;25.35;;;;;;;;;;4878280;29;20045;-79
2022/01/10 10:29:44;;;;;;;47.78;29.60;;;;;;;;;;4862925;29;20457;-77
2022/01/10 10:32:20;;;;;;;;;;;;;;;;;;;;;
2022/01/10 10:35:28;;;;;;;44.38;27.17;;;;;;;;;;4862867;29;20064;-78
2022/01/10 10:38:23;;;;;;;39.17;25.88;;;;;;;;;;4849470;29;20045;-78
2022/01/10 10:47:44;;;;;;;38.92;26.38;;;;;;;;;;4823508;29;20140;-76
2022/01/10 10:53:48;;;;;;;40.95;25.65;;;;;;;;;;4808464;29;20050;-78
2022/01/10 10:56:34;;;;;;;37.60;25.13;;;;;;;;;;4860670;29;20144;-81
2022/01/10 10:59:00;;;;;;;40.65;24.90;;;;;;;;;;4826323;29;20057;-79
2022/01/10 11:01:27;;;;;;;37.85;24.30;;;;;;;;;;4841774;29;20049;-75
2022/01/10 11:03:54;;;;;;;38.38;24.33;;;;;;;;;;4861820;29;20041;-73
2022/01/10 11:06:20;;;;;;;34.97;23.55;;;;;;;;;;4858970;29;20045;-77
2022/01/10 11:08:57;;;;;;;38.50;23.73;;;;;;;;;;4859936;29;20446;-78
2022/01/10 11:14:51;;;;;;;34.70;24.15;;;;;;;;;;4861262;29;20040;-78
2022/01/10 11:36:00;;;;;;;42.72;23.45;;;;;;;;;;5073227;23;20060;-79
2022/01/10 11:42:03;;;;;;;36.10;23.38;;;;;;;;;;4891743;29;20074;-77
2022/01/10 11:44:48;;;;;;;32.35;22.05;;;;;;;;;;4865014;29;20056;-78
2022/01/10 11:47:16;;;;;;;33.47;22.33;;;;;;;;;;4897705;29;20055;-79
2022/01/10 11:50:13;;;;;;;39.67;23.38;;;;;;;;;;4881231;29;20037;-78
2022/01/10 11:53:11;;;;;;;36.30;22.85;;;;;;;;;;4884122;29;20066;-78
2022/01/10 11:55:52;;;;;;;31.92;21.30;;;;;;;;;;4868651;29;20119;-79
2022/01/10 11:58:20;;;;;;;36.60;23.17;;;;;;;;;;4887818;29;20036;-80
2022/01/10 12:00:47;;;;;;;33.08;22.33;;;;;;;;;;4877685;29;20365;-80
2022/01/10 12:03:13;;;;;;;36.90;22.73;;;;;;;;;;4866345;29;20112;-79
2022/01/10 12:05:40;;;;;;;30.92;22.25;;;;;;;;;;4875783;29;20049;-79
2022/01/10 12:08:07;;;;;;;32.85;22.10;;;;;;;;;;4867330;29;20055;-81
2022/01/10 12:10:33;;;;;;;36.45;22.75;;;;;;;;;;4866638;29;20051;-79
2022/01/10 12:13:05;;;;;;;31.80;22.33;;;;;;;;;;4866734;29;20176;-79
2022/01/10 12:15:32;;;;;;;32.25;21.80;;;;;;;;;;4875739;29;20522;-79
2022/01/10 12:17:58;;;;;;;37.50;23.88;;;;;;;;;;4869327;29;20051;-79
2022/01/10 12:20:24;;;;;;;36.72;24.27;;;;;;;;;;4869437;29;20123;-80
2022/01/10 12:22:54;;;;;;;33.85;22.25;;;;;;;;;;4884186;29;20044;-79
2022/01/10 12:25:20;;;;;;;32.60;22.35;;;;;;;;;;4883384;29;20096;-78
2022/01/10 12:27:48;;;;;;;34.80;23.00;;;;;;;;;;4885965;29;20083;-80
2022/01/10 12:30:15;;;;;;;33.10;22.00;;;;;;;;;;4868591;29;20056;-79
2022/01/10 12:32:41;;;;;;;36.47;22.30;;;;;;;;;;4867897;29;20046;-78
2022/01/10 12:35:07;;;;;;;33.20;22.17;;;;;;;;;;4869662;29;20067;-79
2022/01/10 12:37:33;;;;;;;33.55;21.80;;;;;;;;;;4870158;29;20052;-78
2022/01/10 12:39:59;;;;;;;33.25;21.98;;;;;;;;;;4870465;29;20445;-78
2022/01/10 12:42:26;;;;;;;30.75;20.60;;;;;;;;;;4870005;29;20051;-78
2022/01/10 12:44:54;;;;;;;32.70;21.90;;;;;;;;;;4885454;29;20052;-79
2022/01/10 12:47:23;;;;;;;32.70;22.02;;;;;;;;;;4885474;29;20040;-79
2022/01/10 12:49:49;;;;;;;35.03;22.27;;;;;;;;;;4884924;29;20041;-78
2022/01/10 12:52:16;;;;;;;33.00;20.63;;;;;;;;;;4868920;29;20051;-79
2022/01/10 12:54:42;;;;;;;29.05;21.30;;;;;;;;;;4876675;29;20043;-78
2022/01/10 12:57:08;;;;;;;32.33;21.67;;;;;;;;;;4865760;29;20045;-79
2022/01/10 12:59:36;;;;;;;30.25;20.90;;;;;;;;;;4865882;29;20048;-80
2022/01/10 13:02:03;;;;;;;33.22;20.75;;;;;;;;;;4884106;29;20469;-78
2022/01/10 13:04:32;;;;;;;34.15;21.70;;;;;;;;;;4869281;29;20519;-80
2022/01/10 13:06:58;;;;;;;30.65;20.77;;;;;;;;;;4884765;29;20131;-80
2022/01/10 13:09:25;;;;;;;31.30;19.02;;;;;;;;;;4869386;29;20044;-76
2022/01/10 13:12:02;;;;;;;34.42;20.20;;;;;;;;;;4880624;29;20518;-79
2022/01/10 13:14:34;;;;;;;29.90;19.08;;;;;;;;;;4880661;29;20124;-78
2022/01/10 13:17:01;;;;;;;33.40;19.10;;;;;;;;;;4899030;29;20045;-77
2022/01/10 13:19:28;;;;;;;32.17;18.60;;;;;;;;;;4884250;29;20040;-76
2022/01/10 13:22:04;;;;;;;26.45;18.27;;;;;;;;;;4884109;29;20048;-78
2022/01/10 13:24:31;;;;;;;31.63;18.23;;;;;;;;;;4883611;29;20040;-78
2022/01/10 13:26:59;;;;;;;25.10;17.08;;;;;;;;;;4866329;29;20124;-79
2022/01/10 13:29:39;;;;;;;28.08;17.45;;;;;;;;;;4878695;29;20036;-79
2022/01/10 13:32:18;;;;;;;27.42;17.15;;;;;;;;;;4883084;29;20040;-77
2022/01/10 13:34:50;;;;;;;31.02;17.73;;;;;;;;;;4898882;29;20048;-78
2022/01/10 13:37:27;;;;;;;31.38;18.73;;;;;;;;;;4883449;29;20060;-78
2022/01/10 13:40:01;;;;;;;30.02;19.08;;;;;;;;;;4899393;29;20139;-79
2022/01/10 13:42:27;;;;;;;35.72;21.42;;;;;;;;;;4883325;29;20188;-78
2022/01/10 13:44:58;;;;;;;33.08;21.48;;;;;;;;;;4884048;29;20136;-80
2022/01/10 13:47:27;;;;;;;37.33;21.70;;;;;;;;;;4882240;29;20441;-78
2022/01/10 13:49:53;;;;;;;27.63;18.17;;;;;;;;;;4899049;29;20111;-79
2022/01/10 13:52:19;;;;;;;30.83;17.98;;;;;;;;;;4897835;29;20107;-78
2022/01/10 13:54:46;;;;;;;29.67;16.08;;;;;;;;;;4868239;29;20047;-78
2022/01/10 13:57:15;;;;;;;26.73;16.55;;;;;;;;;;4898538;29;20122;-78
2022/01/10 13:59:41;;;;;;;28.10;16.95;;;;;;;;;;4893127;29;20055;-78
2022/01/10 14:02:09;;;;;;;31.17;18.35;;;;;;;;;;4898124;29;20048;-77
2022/01/10 14:04:36;;;;;;;30.45;18.08;;;;;;;;;;4881557;29;20111;-79
2022/01/10 14:07:28;;;;;;;30.58;17.80;;;;;;;;;;4888828;29;20053;-78
2022/01/10 14:09:54;;;;;;;34.55;19.17;;;;;;;;;;4879506;29;20414;-77
2022/01/10 14:12:21;;;;;;;33.80;19.38;;;;;;;;;;4882832;29;20062;-78
2022/01/10 14:14:53;;;;;;;29.35;19.30;;;;;;;;;;4882623;29;20044;-77
2022/01/10 14:17:19;;;;;;;27.65;18.33;;;;;;;;;;4882051;29;20119;-78
2022/01/10 14:19:45;;;;;;;31.00;18.58;;;;;;;;;;4899604;29;20041;-78
2022/01/10 14:22:11;;;;;;;28.83;20.02;;;;;;;;;;4882325;29;20048;-77
2022/01/10 14:24:37;;;;;;;29.70;19.05;;;;;;;;;;4882370;29;20040;-78
2022/01/10 14:27:04;;;;;;;28.42;18.83;;;;;;;;;;4882111;29;20036;-77
2022/01/10 14:29:30;;;;;;;34.83;20.13;;;;;;;;;;4882810;29;20096;-77
2022/01/10 14:31:56;;;;;;;30.02;20.30;;;;;;;;;;4881738;29;20056;-77
2022/01/10 14:34:22;;;;;;;30.23;18.60;;;;;;;;;;4897309;29;20127;-79
2022/01/10 14:36:48;;;;;;;25.83;18.60;;;;;;;;;;4880601;29;20051;-78
2022/01/10 14:39:15;;;;;;;25.67;18.58;;;;;;;;;;4866361;29;20432;-77
2022/01/10 14:41:41;;;;;;;30.95;19.33;;;;;;;;;;4873673;29;20551;-78
2022/01/10 14:44:07;;;;;;;27.65;18.42;;;;;;;;;;4866858;29;20055;-78
2022/01/10 14:46:35;;;;;;;31.25;19.42;;;;;;;;;;4872847;29;20082;-78
2022/01/10 14:49:02;;;;;;;27.02;19.00;;;;;;;;;;4895088;29;20541;-81
2022/01/10 14:51:28;;;;;;;28.50;20.52;;;;;;;;;;4896801;29;20432;-78
2022/01/10 14:53:55;;;;;;;31.75;21.58;;;;;;;;;;4884683;29;20052;-78
2022/01/10 14:56:21;;;;;;;28.23;19.90;;;;;;;;;;4866096;29;20045;-78
2022/01/10 14:58:47;;;;;;;31.98;20.55;;;;;;;;;;4897107;29;20111;-79
2022/01/10 15:01:15;;;;;;;30.73;19.88;;;;;;;;;;4897884;29;20131;-78
2022/01/10 15:03:42;;;;;;;30.67;21.02;;;;;;;;;;4882279;29;20048;-79
2022/01/10 15:06:10;;;;;;;24.55;18.30;;;;;;;;;;4896483;29;20052;-78
2022/01/10 15:08:41;;;;;;;27.60;19.42;;;;;;;;;;4881010;29;20036;-77
2022/01/10 15:11:09;;;;;;;33.20;19.67;;;;;;;;;;4863664;29;20060;-79
2022/01/10 15:13:35;;;;;;;30.23;20.50;;;;;;;;;;4879125;29;20041;-80
2022/01/10 15:16:01;;;;;;;30.20;20.67;;;;;;;;;;4864144;29;20049;-79
2022/01/10 15:18:27;;;;;;;27.90;19.15;;;;;;;;;;4879903;29;20104;-81
2022/01/10 15:20:53;;;;;;;33.22;21.52;;;;;;;;;;4894409;29;20079;-81
2022/01/10 15:23:20;;;;;;;33.90;23.05;;;;;;;;;;4883810;29;20044;-80
2022/01/10 15:25:47;;;;;;;30.27;21.95;;;;;;;;;;4869877;29;20064;-78
2022/01/10 15:28:13;;;;;;;29.95;22.45;;;;;;;;;;4863819;29;20068;-78
2022/01/10 15:30:39;;;;;;;37.78;24.85;;;;;;;;;;4883692;29;20131;-79
2022/01/10 15:33:06;;;;;;;33.45;23.38;;;;;;;;;;4892204;29;20461;-80
2022/01/10 15:35:32;;;;;;;32.40;21.40;;;;;;;;;;4868752;29;20048;-78
2022/01/10 15:37:58;;;;;;;31.42;21.10;;;;;;;;;;4870176;29;20361;-77
2022/01/10 15:40:25;;;;;;;30.88;21.27;;;;;;;;;;4900041;29;20048;-79
2022/01/10 15:42:51;;;;;;;34.05;21.70;;;;;;;;;;4876854;29;20044;-79
2022/01/10 15:45:23;;;;;;;28.13;20.75;;;;;;;;;;4881985;29;20475;-79
2022/01/10 15:47:49;;;;;;;32.13;21.92;;;;;;;;;;4884567;29;20104;-79
2022/01/10 15:50:21;;;;;;;32.10;21.08;;;;;;;;;;4882509;29;20049;-78
2022/01/10 15:52:48;;;;;;;28.95;20.05;;;;;;;;;;4882800;29;20044;-79
2022/01/10 15:55:15;;;;;;;32.45;21.58;;;;;;;;;;4852275;29;20045;-79
2022/01/10 15:57:44;;;;;;;30.27;20.65;;;;;;;;;;4867280;29;20176;-81
2022/01/10 16:00:20;;;;;;;27.80;19.80;;;;;;;;;;4872176;29;20104;-78
2022/01/10 16:02:55;;;;;;;26.45;19.42;;;;;;;;;;4883463;29;20033;-78
2022/01/10 16:05:21;;;;;;;30.30;20.92;;;;;;;;;;4882001;29;21811;-76
2022/01/10 16:07:48;;;;;;;34.95;22.63;;;;;;;;;;4881271;29;20044;-78
2022/01/10 16:10:30;;;;;;;32.25;23.02;;;;;;;;;;4868546;29;20114;-78
2022/01/10 16:12:59;;;;;;;34.88;22.77;;;;;;;;;;4881373;29;20107;-78
2022/01/10 16:15:25;;;;;;;32.65;22.20;;;;;;;;;;4885596;29;20047;-80
2022/01/10 16:17:51;;;;;;;31.67;23.25;;;;;;;;;;4892407;29;20036;-78
2022/01/10 16:20:17;;;;;;;30.60;23.02;;;;;;;;;;4900704;29;20036;-77
2022/01/10 16:22:43;;;;;;;29.23;22.90;;;;;;;;;;4900488;29;20033;-80
2022/01/10 16:25:09;;;;;;;29.73;21.45;;;;;;;;;;4884190;29;20044;-76
2022/01/10 16:27:57;;;;;;;29.20;22.65;;;;;;;;;;4896866;29;20052;-80
2022/01/10 16:30:23;;;;;;;36.08;24.30;;;;;;;;;;4866408;29;20116;-78
2022/01/10 16:33:07;;;;;;;34.72;24.13;;;;;;;;;;4877121;29;20100;-78
2022/01/10 16:35:33;;;;;;;29.02;23.02;;;;;;;;;;4884262;29;20053;-78
2022/01/10 16:37:59;;;;;;;33.50;22.48;;;;;;;;;;4885059;29;20112;-78
2022/01/10 16:40:25;;;;;;;30.23;22.75;;;;;;;;;;4886303;29;20041;-78
2022/01/10 16:42:51;;;;;;;33.45;23.08;;;;;;;;;;4866699;29;20040;-78
2022/01/10 16:45:18;;;;;;;36.97;25.77;;;;;;;;;;4866182;29;20044;-77
2022/01/10 16:47:44;;;;;;;32.92;25.30;;;;;;;;;;4866220;29;20067;-79
2022/01/10 16:50:10;;;;;;;36.10;25.77;;;;;;;;;;4899640;29;20044;-76
2022/01/10 16:52:36;;;;;;;35.80;24.80;;;;;;;;;;4869094;29;20051;-78
2022/01/10 16:55:03;;;;;;;37.47;24.98;;;;;;;;;;4862905;29;20047;-79
2022/01/10 16:57:29;;;;;;;35.05;24.58;;;;;;;;;;4898207;29;20441;-77
2022/01/10 16:59:57;;;;;;;32.58;23.23;;;;;;;;;;4882924;29;20123;-78
2022/01/10 17:02:23;;;;;;;33.25;22.70;;;;;;;;;;4889138;29;20094;-76
2022/01/10 17:04:49;;;;;;;31.02;23.48;;;;;;;;;;4880785;29;20048;-78
2022/01/10 17:07:16;;;;;;;37.92;24.65;;;;;;;;;;4875730;29;20041;-77
2022/01/10 17:09:48;;;;;;;35.25;24.42;;;;;;;;;;4881591;29;20446;-76
2022/01/10 17:12:14;;;;;;;28.42;22.20;;;;;;;;;;4878549;29;20044;-77
2022/01/10 17:14:40;;;;;;;28.38;22.45;;;;;;;;;;4883890;29;20044;-79
2022/01/10 17:17:06;;;;;;;32.47;22.20;;;;;;;;;;4899810;29;20104;-78
2022/01/10 17:19:32;;;;;;;31.25;22.92;;;;;;;;;;4883686;29;20047;-78
2022/01/10 17:21:59;;;;;;;30.05;22.92;;;;;;;;;;4868083;29;20349;-77
2022/01/10 17:24:25;;;;;;;38.03;22.83;;;;;;;;;;4883843;29;20127;-76
2022/01/10 17:26:51;;;;;;;41.13;26.52;;;;;;;;;;4899425;29;20051;-75
2022/01/10 18:10:12;;;;;;;35.35;25.23;;;;;;;;;;4823932;29;20062;-77
2022/01/10 18:12:39;;;;;;;42.45;26.83;;;;;;;;;;4807295;29;20050;-77
2022/01/10 18:15:05;;;;;;;45.20;27.30;;;;;;;;;;4839700;29;20080;-78
2022/01/10 18:17:42;;;;;;;41.30;26.85;;;;;;;;;;4824300;29;20107;-80
2022/01/10 18:20:17;;;;;;;44.53;26.13;;;;;;;;;;4819506;29;20386;-79
2022/01/10 18:22:47;;;;;;;37.25;26.38;;;;;;;;;;4822839;29;20058;-83
2022/01/10 18:26:24;;;;;;;45.15;29.08;;;;;;;;;;4824492;29;20443;-85
2022/01/10 18:28:31;;;;;;;36.25;26.15;;;;;;;;;;4823498;29;20046;-79
2022/01/10 18:35:40;;;;;;;35.38;23.92;;;;;;;;;;4804848;29;20077;-81
2022/01/10 18:38:30;;;;;;;37.35;26.00;;;;;;;;;;4804461;29;20045;-77
2022/01/10 18:40:57;;;;;;;39.40;27.25;;;;;;;;;;4771820;30;20051;-77
2022/01/10 18:43:24;;;;;;;42.80;27.63;;;;;;;;;;4821067;29;20137;-77
2022/01/10 18:45:58;;;;;;;44.25;29.98;;;;;;;;;;4806424;29;20047;-77
2022/01/10 18:48:27;;;;;;;41.60;28.02;;;;;;;;;;4812523;29;20456;-77
2022/01/10 18:50:54;;;;;;;44.70;30.48;;;;;;;;;;4823096;29;20424;-77
2022/01/10 18:53:31;;;;;;;47.35;28.92;;;;;;;;;;4823976;29;20042;-77
2022/01/10 18:55:58;;;;;;;49.00;31.10;;;;;;;;;;4824392;29;20042;-77
2022/01/10 18:58:25;;;;;;;40.60;28.13;;;;;;;;;;4839248;29;20095;-77
2022/01/10 19:00:51;;;;;;;46.55;30.05;;;;;;;;;;4823467;29;20046;-77
2022/01/10 19:03:17;;;;;;;46.60;31.92;;;;;;;;;;4825341;29;20130;-77
2022/01/10 19:05:43;;;;;;;50.60;30.98;;;;;;;;;;4827230;29;20065;-77
2022/01/10 19:08:18;;;;;;;41.92;29.88;;;;;;;;;;4826865;29;20065;-77
2022/01/10 19:10:57;;;;;;;43.33;29.90;;;;;;;;;;4827239;29;20371;-78
2022/01/10 19:13:46;;;;;;;42.17;29.38;;;;;;;;;;4826908;29;20129;-78
2022/01/10 19:16:16;;;;;;;46.80;32.55;;;;;;;;;;4828841;29;20081;-77
2022/01/10 19:18:42;;;;;;;44.95;30.77;;;;;;;;;;4826970;29;20034;-77
2022/01/10 19:21:11;;;;;;;50.85;33.28;;;;;;;;;;4827425;29;20052;-77
2022/01/10 19:23:58;;;;;;;56.40;35.50;;;;;;;;;;4827244;29;20050;-81
2022/01/10 19:26:39;;;;;;;55.17;35.55;;;;;;;;;;4826715;29;20121;-77
2022/01/10 19:29:37;;;;;;;61.58;34.83;;;;;;;;;;4826391;29;20042;-77
2022/01/10 19:32:04;;;;;;;52.28;33.25;;;;;;;;;;4823769;29;20055;-75
2022/01/10 19:34:43;;;;;;;52.75;33.55;;;;;;;;;;4822417;29;20075;-76
2022/01/10 19:37:11;;;;;;;54.83;31.83;;;;;;;;;;4826282;29;20038;-77
2022/01/10 19:39:37;;;;;;;55.25;34.53;;;;;;;;;;4827034;29;20360;-77
2022/01/10 19:42:06;;;;;;;50.75;35.17;;;;;;;;;;4838208;29;20380;-77
2022/01/10 19:44:32;;;;;;;55.58;34.80;;;;;;;;;;4838474;29;20038;-77
2022/01/10 19:47:01;;;;;;;48.22;33.67;;;;;;;;;;4826985;29;20042;-77
2022/01/10 19:49:40;;;;;;;47.78;32.15;;;;;;;;;;4826431;29;20106;-77
2022/01/10 19:52:35;;;;;;;45.92;31.67;;;;;;;;;;4819164;29;20053;-77
2022/01/10 19:55:18;;;;;;;49.92;33.33;;;;;;;;;;4794353;29;20509;-77
2022/01/10 19:57:50;;;;;;;45.17;30.63;;;;;;;;;;4808823;29;20479;-76
2022/01/10 20:00:22;;;;;;;52.20;32.72;;;;;;;;;;4818317;29;20042;-76
2022/01/10 20:03:12;;;;;;;51.25;31.60;;;;;;;;;;4826801;29;20102;-77
2022/01/10 20:05:43;;;;;;;50.30;31.98;;;;;;;;;;4845599;29;20042;-77
2022/01/10 20:08:12;;;;;;;52.00;32.08;;;;;;;;;;4826821;29;20121;-77
2022/01/10 20:10:48;;;;;;;49.22;32.97;;;;;;;;;;4843070;29;20050;-77
2022/01/10 20:13:27;;;;;;;59.95;36.15;;;;;;;;;;4825759;29;20042;-76
2022/01/10 20:15:53;;;;;;;56.13;34.45;;;;;;;;;;4837075;29;20050;-78
2022/01/10 20:18:20;;;;;;;50.90;33.75;;;;;;;;;;4826603;29;20034;-76
2022/01/10 20:20:46;;;;;;;51.75;34.20;;;;;;;;;;4825996;29;20060;-77
2022/01/10 20:23:12;;;;;;;47.78;33.60;;;;;;;;;;4826559;29;20093;-77
2022/01/10 20:25:38;;;;;;;51.78;34.53;;;;;;;;;;4826679;29;20091;-77
2022/01/10 20:28:05;;;;;;;50.97;32.95;;;;;;;;;;4826614;29;20072;-77
2022/01/10 20:30:31;;;;;;;52.55;34.55;;;;;;;;;;4825889;29;20436;-77
2022/01/10 20:32:57;;;;;;;73.10;39.25;;;;;;;;;;4826937;29;20082;-77
2022/01/10 20:35:26;;;;;;;52.85;36.95;;;;;;;;;;4844677;29;20049;-79
2022/01/10 20:38:13;;;;;;;;;;;;;;;;;;;;;
2022/01/10 20:40:50;;;;;;;58.30;38.67;;;;;;;;;;4824186;29;20114;-77
2022/01/10 20:43:16;;;;;;;53.92;36.28;;;;;;;;;;4843902;29;20521;-77
2022/01/10 20:45:51;;;;;;;56.20;37.80;;;;;;;;;;4832997;29;20165;-76
2022/01/10 20:48:21;;;;;;;52.70;36.83;;;;;;;;;;4825121;29;20042;-77
2022/01/10 20:50:54;;;;;;;54.30;36.35;;;;;;;;;;4824666;29;20487;-77
2022/01/10 20:54:09;;;;;;;52.30;35.13;;;;;;;;;;4810217;29;20060;-76
2022/01/10 20:56:57;;;;;;;51.13;34.38;;;;;;;;;;4794167;29;20460;-77
2022/01/10 20:59:23;;;;;;;51.58;32.45;;;;;;;;;;4774949;29;20058;-81
2022/01/10 21:02:18;;;;;;;48.10;32.67;;;;;;;;;;4792338;29;20166;-77
2022/01/10 21:04:45;;;;;;;47.67;32.88;;;;;;;;;;4790703;29;20058;-78
2022/01/10 21:07:43;;;;;;;45.47;31.92;;;;;;;;;;4790834;29;20437;-77
2022/01/10 21:10:42;;;;;;;48.47;33.55;;;;;;;;;;4749812;30;20060;-77
2022/01/10 21:13:14;;;;;;;51.63;33.97;;;;;;;;;;4729287;30;20087;-78
2022/01/10 21:15:55;;;;;;;48.47;31.77;;;;;;;;;;4737878;30;20363;-77
2022/01/10 21:18:52;;;;;;;;;;;;;;;;;;;;;
2022/01/10 21:28:27;;;;;;;49.47;31.50;;;;;;;;;;4784420;29;20057;-77
2022/01/10 21:31:08;;;;;;;50.53;32.30;;;;;;;;;;4792498;29;20455;-76
2022/01/10 21:34:18;;;;;;;51.90;31.70;;;;;;;;;;4815155;29;20194;-77
2022/01/10 21:36:45;;;;;;;50.53;31.33;;;;;;;;;;4818923;29;20138;-77
2022/01/10 21:42:40;;;;;;;44.88;29.05;;;;;;;;;;4824983;29;20072;-76
2022/01/10 21:59:55;;;;;;;39.03;27.15;;;;;;;;;;4707101;30;20049;-78
2022/01/10 22:06:30;;;;;;;;;;;;;;;;;;;;;
